Nearby METAR Reports

 

RPLL - Ninoy Aquino Int, Philippines
Distance from station: S 15km
Updated: 01/27/2023 12:00pm
Light rain, Showers, Overcast
Light rain, Showers, Overcast
 Wind from WNW
Wind: WNW 11 km/h
Temperature: 28°C
Heat Index: 30°C
Dew Point: 21°C
Humidity: 66%
Barometer: 1010 hPa
Summary: Light rain, Showers
Clouds: Overcast
Visibility: 8 km
Cloud details: Partly cloudy 701 m
Overcast 2743 m
2023/01/27 04:00 RPLL 270400Z 30006KT 260V340 8000 -SHRA SCT023 OVC090 28/21 Q1010 NOSIG RMK A2983
RPLC - Angeles/Pampanga, Philippines
Distance from station: NW 71km
Updated: 01/27/2023 12:00pm
Overcast
Overcast
 Wind from N
Wind: N 15 km/h
Temperature: 29°C
Heat Index: 31°C
Dew Point: 20°C
Humidity: 58%
Barometer: 1012 hPa
Clouds: Overcast
Visibility: 10 km
Cloud details: Partly cloudy 610 m
Overcast 3048 m
2023/01/27 04:00 RPLC 270400Z 36008KT 9999 SCT020 OVC100 29/20 Q1012 NOSIG RMK A2988
 
RPLB - Olongapo/Subic, Philippines
Distance from station: WNW 78km
Updated: 01/27/2023 12:00pm
Mostly cloudy
Mostly cloudy
 Wind from varies
Wind: varies 6 km/h
Temperature: 31°C
Heat Index: 33°C
Dew Point: 19°C
Humidity: 49%
Barometer: 1011 hPa
Clouds: Mostly cloudy
Visibility: 10 km
Cloud details: Few Clouds 610 m
Mostly cloudy 2438 m
2023/01/27 04:00 RPLB 270400Z VRB03KT 9999 FEW020 BKN080 31/19 Q1011 NOSIG RMK A2985
RPMR - Romblon/Tablas I, Philippines
Distance from station: SSE 270km
Updated: 01/27/2023 12:00pm
Mostly cloudy
Mostly cloudy
 Wind from ESE
Wind: ESE 11 km/h
Temperature: 31°C
Heat Index: 36°C
Dew Point: 23°C
Humidity: 62%
Barometer: 1007 hPa
Clouds: Mostly cloudy
Visibility: 10 km
Cloud details: Partly cloudy 549 m
Mostly cloudy 2438 m
2023/01/27 04:00 RPMR 270400Z 11006KT 070V150 9999 SCT018 BKN080 31/23 Q1007 RMK A2974
 
RPVK - Kalibo/Panay Isl, Philippines
Distance from station: SSE 364km
Updated: 11/09/2022 10:00pm
NOT Current
Partly cloudy
Partly cloudy
 Wind from W
Wind: W 4 km/h
Temperature: 27°C
Heat Index: 29°C
Dew Point: 22°C
Humidity: 74%
Barometer: 1013 hPa
Clouds: Partly cloudy
Visibility: 10 km
Cloud details: Few Clouds 610 m
Partly cloudy 9144 m
2022/11/09 14:00 RPVK 091400Z 27002KT 9999 FEW020 SCT300 27/22 Q1013 NOSIG RMK A2993
RPLI - Laoag Intl(Ph-Ar, Philippines
Distance from station: N 394km
Updated: 01/27/2023 12:00pm
Mostly cloudy
Mostly cloudy
 Wind from N
Wind: N 30 km/h, Gust: 50 km/h
Temperature: 27°C
Heat Index: 28°C
Dew Point: 18°C
Humidity: 58%
Barometer: 1013 hPa
Clouds: Mostly cloudy
Visibility: 10 km
Cloud details: Few Clouds 549 m
Mostly cloudy 8534 m
2023/01/27 04:00 RPLI 270400Z 36016G27KT 9999 FEW018 BKN280 27/18 Q1013 NOSIG RMK A2991
 
RPVM - Mactan-Cebu, Philippines
Distance from station: SE 582km
Updated: 01/27/2023 12:00pm
Mostly cloudy
Mostly cloudy
 Wind from NE
Wind: NE 11 km/h
Temperature: 28°C
Heat Index: 32°C
Dew Point: 25°C
Humidity: 84%
Barometer: 1009 hPa
Clouds: Mostly cloudy
Visibility: 10 km
Cloud details: Few Clouds 610 m
Mostly cloudy 3048 m
2023/01/27 04:00 RPVM 270400Z 04006KT 9999 FEW020 BKN100 28/25 Q1009 NOSIG RMK A2980
RPVP - Puerto Princesa, Philippines
Distance from station: SSW 598km
Updated: 01/27/2023 12:00pm
Overcast
Overcast
 Wind from N
Wind: N 7 km/h
Temperature: 26°C
Dew Point: 24°C
Humidity: 89%
Barometer: 1009 hPa
Clouds: Overcast
Visibility: 10 km
Cloud details: Few Clouds 579 m
Overcast 2438 m
2023/01/27 04:00 RPVP 270400Z 36004KT 9999 FEW019 OVC080 26/24 Q1009 RMK A2980
 
RPVD - Dumaguete/Negros, Philippines
Distance from station: SSE 643km
Updated: 01/27/2023 12:00pm
Partly cloudy
Partly cloudy
 Wind from NE
Wind: NE 19 km/h
Temperature: 30°C
Heat Index: 37°C
Dew Point: 26°C
Humidity: 79%
Barometer: 1008 hPa
Clouds: Partly cloudy
Visibility: 10 km
Cloud details: Few Clouds 732 m
Partly cloudy 6706 m
2023/01/27 04:00 RPVD 270400Z 04010KT 9999 FEW024 SCT220 30/26 Q1008 RMK A2977
RPMZ - Zamboanga (civ/A, Philippines
Distance from station: S 868km
Updated: 01/27/2023 12:00pm
Mostly cloudy
Mostly cloudy
 Wind from SSE
Wind: SSE 9 km/h
Temperature: 31°C
Heat Index: 38°C
Dew Point: 25°C
Humidity: 70%
Barometer: 1008 hPa
Clouds: Mostly cloudy
Visibility: 10 km
Cloud details: Few Clouds 488 m
Mostly cloudy 2743 m
2023/01/27 04:00 RPMZ 270400Z 16005KT 080V240 9999 FEW016CB BKN090 31/25 Q1008 RMK A2977 CB NW NE
 
RPMD - Davao/Francisco, Philippines
Distance from station: SSE 980km
Updated: 01/27/2023 12:00pm
Mostly cloudy
Mostly cloudy
 Wind from SSE
Wind: SSE 9 km/h
Temperature: 31°C
Heat Index: 36°C
Dew Point: 23°C
Humidity: 62%
Barometer: 1007 hPa
Clouds: Mostly cloudy
Visibility: 10 km
Cloud details: Partly cloudy 488 m
Partly cloudy 2743 m
Mostly cloudy 7925 m
2023/01/27 04:00 RPMD 270400Z 15005KT 080V200 9999 SCT016 SCT090 BKN260 31/23 Q1007 RMK A2974